createdAt,value
2018-06-12T00:01:46.710Z,78.29
2018-06-12T00:04:17.542Z,78.33
2018-06-12T00:06:50.611Z,78.17
2018-06-12T00:09:24.599Z,78.44
2018-06-12T00:11:58.113Z,78.46
2018-06-12T00:14:29.733Z,78.70
2018-06-12T00:17:01.400Z,78.26
2018-06-12T00:19:32.880Z,78.30
2018-06-12T00:22:07.691Z,78.67
2018-06-12T00:24:39.177Z,78.35
2018-06-12T00:27:10.733Z,78.76
2018-06-12T00:29:44.184Z,78.41
2018-06-12T00:32:16.831Z,78.90
2018-06-12T00:34:48.380Z,79.01
2018-06-12T00:37:20.109Z,78.77
2018-06-12T00:39:53.294Z,78.81
2018-06-12T00:42:24.874Z,78.48
2018-06-12T00:44:56.903Z,78.61
2018-06-12T00:47:30.005Z,78.64
2018-06-12T00:50:02.967Z,78.87
2018-06-12T00:52:36.731Z,78.90
2018-06-12T00:55:08.183Z,79.04
2018-06-12T00:57:40.478Z,78.75
2018-06-12T01:00:13.373Z,79.29
2018-06-12T01:02:44.570Z,79.64
2018-06-12T01:05:16.631Z,79.71
2018-06-12T01:07:48.277Z,79.38
2018-06-12T01:10:20.724Z,79.15
2018-06-12T01:12:55.288Z,79.39
2018-06-12T01:15:29.865Z,79.58
2018-06-12T01:18:03.199Z,79.81
2018-06-12T01:20:36.258Z,80.44
2018-06-12T01:23:11.259Z,80.15
2018-06-12T01:25:44.807Z,80.50
2018-06-12T01:28:19.147Z,80.49
2018-06-12T01:30:52.631Z,80.68
2018-06-12T01:33:27.311Z,80.54
2018-06-12T01:35:58.993Z,80.55
2018-06-12T01:38:33.994Z,80.55
2018-06-12T01:41:06.989Z,80.70
2018-06-12T01:43:41.577Z,80.77
2018-06-12T01:46:12.218Z,80.90
2018-06-12T01:48:47.406Z,80.72
2018-06-12T01:51:19.264Z,80.36
2018-06-12T01:53:53.822Z,79.93
2018-06-12T01:56:26.029Z,79.86
2018-06-12T01:59:00.848Z,79.16
2018-06-12T02:01:32.395Z,79.56
2018-06-12T02:04:02.237Z,79.33
2018-06-12T02:06:35.493Z,79.27
2018-06-12T02:09:10.545Z,79.18
2018-06-12T02:11:45.195Z,78.36
2018-06-12T02:14:20.061Z,79.00
2018-06-12T02:16:54.455Z,78.41
2018-06-12T02:19:29.802Z,78.33
2018-06-12T02:22:04.545Z,78.24
2018-06-12T02:24:34.778Z,77.97
2018-06-12T02:27:09.496Z,78.32
2018-06-12T02:29:41.336Z,77.59
2018-06-12T02:32:14.757Z,77.01
2018-06-12T02:34:47.743Z,77.58
2018-06-12T02:37:21.370Z,76.80
2018-06-12T02:39:53.957Z,77.26
2018-06-12T02:42:26.164Z,77.09
2018-06-12T02:44:59.472Z,76.12
2018-06-12T02:47:31.158Z,76.36
2018-06-12T02:50:04.965Z,76.91
2018-06-12T02:52:35.725Z,76.39
2018-06-12T02:55:06.615Z,75.57
2018-06-12T02:57:38.337Z,76.49
2018-06-12T03:00:13.243Z,76.79
2018-06-12T03:02:47.289Z,76.41
2018-06-12T03:05:17.714Z,76.96
2018-06-12T03:07:49.294Z,75.89
2018-06-12T03:10:23.802Z,75.95
2018-06-12T03:12:58.012Z,76.05
2018-06-12T03:15:30.084Z,75.61
2018-06-12T03:18:02.949Z,75.15
2018-06-12T03:20:47.980Z,74.27
2018-06-12T03:23:21.147Z,74.21
2018-06-12T03:26:03.910Z,74.38
2018-06-12T03:28:38.489Z,74.79
2018-06-12T03:31:11.841Z,74.56
2018-06-12T03:33:45.132Z,74.34
2018-06-12T03:36:18.075Z,73.86
2018-06-12T03:38:52.056Z,73.88
2018-06-12T03:41:23.707Z,73.46
2018-06-12T03:43:57.136Z,72.87
2018-06-12T03:46:29.360Z,72.12
2018-06-12T03:49:01.070Z,71.95
2018-06-12T03:51:34.655Z,73.10
2018-06-12T03:54:07.950Z,73.07
2018-06-12T03:56:39.577Z,73.62
2018-06-12T03:59:12.114Z,72.81
2018-06-12T04:01:42.091Z,72.57
2018-06-12T04:04:16.759Z,72.38
2018-06-12T04:06:48.429Z,72.17
2018-06-12T04:09:21.446Z,73.07
2018-06-12T04:11:51.565Z,73.25
2018-06-12T04:14:22.986Z,73.02
2018-06-12T04:16:58.254Z,73.02
2018-06-12T04:19:29.760Z,72.00
2018-06-12T04:22:01.234Z,71.90
2018-06-12T04:24:35.847Z,73.23
2018-06-12T04:27:09.382Z,73.31
2018-06-12T04:29:41.783Z,72.58
2018-06-12T04:32:15.402Z,72.80
2018-06-12T04:34:50.571Z,73.21
2018-06-12T04:37:23.514Z,73.88
2018-06-12T04:39:55.243Z,73.46
2018-06-12T04:42:28.514Z,72.33
2018-06-12T04:45:03.114Z,73.43
2018-06-12T04:47:36.844Z,72.88
2018-06-12T04:50:11.615Z,72.88
2018-06-12T04:52:43.434Z,73.56
2018-06-12T04:55:15.323Z,73.97
2018-06-12T04:57:51.374Z,73.39
2018-06-12T05:00:24.574Z,72.99
2018-06-12T05:02:57.594Z,72.39
2018-06-12T05:05:29.156Z,72.39
2018-06-12T05:08:00.634Z,71.34
2018-06-12T05:10:34.101Z,71.63
2018-06-12T05:13:08.622Z,71.73
2018-06-12T05:15:41.745Z,70.74
2018-06-12T05:18:13.412Z,69.77
2018-06-12T05:20:44.445Z,70.55
2018-06-12T05:23:17.805Z,69.08
2018-06-12T05:25:49.299Z,66.79
2018-06-12T05:28:22.382Z,64.90
2018-06-12T05:30:56.061Z,67.60
2018-06-12T05:33:27.740Z,69.16
2018-06-12T05:36:02.358Z,69.31
2018-06-12T05:38:33.923Z,69.29
2018-06-12T05:41:06.992Z,68.74
2018-06-12T05:43:39.155Z,70.00
2018-06-12T05:46:11.204Z,70.50
2018-06-12T05:48:44.307Z,71.56
2018-06-12T05:51:17.347Z,70.75
2018-06-12T05:53:50.262Z,69.97
2018-06-12T05:56:25.060Z,69.27
2018-06-12T05:58:56.509Z,68.43
2018-06-12T06:01:30.127Z,69.71
2018-06-12T06:04:01.583Z,68.16
2018-06-12T06:06:34.786Z,68.41
2018-06-12T06:09:06.476Z,69.38
2018-06-12T06:11:41.315Z,68.65
2018-06-12T06:14:14.648Z,68.65
2018-06-12T06:16:47.580Z,69.01
2018-06-12T06:19:19.379Z,69.98
2018-06-12T06:21:52.798Z,69.51
2018-06-12T06:24:25.747Z,68.92
2018-06-12T06:26:55.736Z,67.27
2018-06-12T06:29:30.789Z,69.28
2018-06-12T06:32:02.344Z,68.70
2018-06-12T06:34:37.768Z,67.77
2018-06-12T06:37:10.913Z,68.64
2018-06-12T06:39:42.430Z,69.33
2018-06-12T06:42:16.114Z,68.49
2018-06-12T06:44:50.873Z,68.36
2018-06-12T06:47:22.531Z,68.50
2018-06-12T06:49:57.408Z,68.05
2018-06-12T06:52:32.356Z,67.53
2018-06-12T06:55:02.374Z,66.47
2018-06-12T06:57:35.794Z,65.68
2018-06-12T07:00:07.731Z,66.68
2018-06-12T07:03:05.324Z,67.20
2018-06-12T07:05:38.053Z,63.86
2018-06-12T07:08:10.525Z,61.74
2018-06-12T07:10:43.945Z,59.70
2018-06-12T07:13:17.251Z,58.38
2018-06-12T07:15:48.316Z,59.97
2018-06-12T07:18:20.149Z,61.52
2018-06-12T07:21:10.257Z,64.54
2018-06-12T07:23:43.276Z,62.61
2018-06-12T07:26:17.821Z,63.25
2018-06-12T07:28:47.760Z,63.76
2018-06-12T07:31:19.344Z,63.77
2018-06-12T07:33:50.496Z,64.20
2018-06-12T07:36:21.951Z,62.09
2018-06-12T07:38:54.993Z,64.87
2018-06-12T07:41:28.112Z,63.04
2018-06-12T07:44:00.013Z,63.97
2018-06-12T07:46:32.899Z,62.99
2018-06-12T07:49:05.732Z,62.12
2018-06-12T07:51:37.385Z,61.94
2018-06-12T07:54:10.337Z,62.81
2018-06-12T07:56:42.093Z,62.43
2018-06-12T07:59:15.214Z,62.10
2018-06-12T08:01:48.268Z,63.50
2018-06-12T08:04:21.179Z,63.66
2018-06-12T08:06:52.745Z,62.39
2018-06-12T08:09:25.819Z,62.98
2018-06-12T08:11:57.173Z,61.66
2018-06-12T08:14:30.187Z,61.77
2018-06-12T08:17:03.192Z,60.98
2018-06-12T08:19:36.254Z,61.21
2018-06-12T08:22:07.890Z,58.08
2018-06-12T08:24:41.157Z,59.77
2018-06-12T08:27:12.639Z,57.73
2018-06-12T08:29:42.631Z,57.05
2018-06-12T08:32:14.184Z,58.48
2018-06-12T08:34:48.609Z,58.78
2018-06-12T08:37:21.658Z,55.74
2018-06-12T08:39:54.966Z,58.11
2018-06-12T08:42:27.531Z,56.29
2018-06-12T08:45:00.457Z,56.86
2018-06-12T08:47:31.915Z,55.96
2018-06-12T08:50:04.284Z,52.48
2018-06-12T08:52:38.845Z,53.06
2018-06-12T08:55:08.731Z,51.92
2018-06-12T08:57:41.640Z,51.16
2018-06-12T09:00:11.734Z,53.13
2018-06-12T09:02:43.198Z,51.28
2018-06-12T09:05:15.445Z,49.50
2018-06-12T09:07:46.895Z,45.14
2018-06-12T09:10:19.654Z,46.17
2018-06-12T09:12:52.820Z,45.10
2018-06-12T09:15:22.783Z,45.86
2018-06-12T09:17:55.730Z,46.63
2018-06-12T09:20:30.072Z,45.94
2018-06-12T09:23:04.367Z,47.23
2018-06-12T09:25:37.356Z,47.24
2018-06-12T09:28:09.388Z,48.50
2018-06-12T09:30:41.816Z,53.53
2018-06-12T09:33:13.468Z,49.91
2018-06-12T09:35:44.966Z,48.82
2018-06-12T09:38:17.843Z,49.37
2018-06-12T09:40:52.411Z,51.37
2018-06-12T09:43:27.184Z,47.46
2018-06-12T09:45:57.304Z,48.47
2018-06-12T09:48:27.317Z,50.49
2018-06-12T09:51:00.743Z,49.84
2018-06-12T09:53:33.575Z,48.18
2018-06-12T09:56:06.891Z,50.38
2018-06-12T09:58:39.885Z,49.67
2018-06-12T10:01:25.136Z,51.18
2018-06-12T10:03:59.270Z,50.06
2018-06-12T10:06:33.650Z,50.61
2018-06-12T10:09:03.595Z,50.11
2018-06-12T10:11:36.550Z,46.06
2018-06-12T10:14:08.972Z,45.97
2018-06-12T10:16:40.204Z,48.65
2018-06-12T10:19:10.218Z,47.40
2018-06-12T10:21:41.676Z,45.34
2018-06-12T10:24:14.568Z,44.81
2018-06-12T10:26:49.184Z,45.51
2018-06-12T10:29:22.081Z,45.55
2018-06-12T10:31:55.310Z,44.45
2018-06-12T10:34:29.868Z,46.23
2018-06-12T10:36:59.895Z,46.36
2018-06-12T10:39:32.941Z,47.70
2018-06-12T10:42:05.558Z,47.54
2018-06-12T10:44:37.068Z,49.53
2018-06-12T10:47:10.320Z,50.58
2018-06-12T10:49:43.685Z,51.02
2018-06-12T10:52:16.788Z,53.41
2018-06-12T10:54:51.104Z,53.11
2018-06-12T10:57:23.968Z,52.77
2018-06-12T10:59:56.873Z,50.87
2018-06-12T11:02:31.701Z,50.70
2018-06-12T11:05:03.375Z,50.44
2018-06-12T11:07:37.634Z,50.77
2018-06-12T11:10:07.612Z,55.40
2018-06-12T11:12:39.594Z,51.69
2018-06-12T11:15:12.974Z,51.40
2018-06-12T11:17:44.374Z,52.25
2018-06-12T11:20:17.366Z,54.06
2018-06-12T11:22:47.810Z,51.92
2018-06-12T11:25:22.243Z,55.85
2018-06-12T11:27:55.166Z,55.41
2018-06-12T11:30:29.713Z,54.49
2018-06-12T11:33:01.246Z,54.31
2018-06-12T11:35:32.675Z,53.10
2018-06-12T11:38:04.774Z,54.98
2018-06-12T11:40:36.498Z,54.50
2018-06-12T11:43:06.509Z,52.37
2018-06-12T11:45:37.241Z,54.82
2018-06-12T11:48:12.149Z,54.05
2018-06-12T11:50:45.170Z,54.92
2018-06-12T11:53:18.001Z,53.42
2018-06-12T11:55:52.453Z,54.39
2018-06-12T11:58:25.532Z,55.58
2018-06-12T12:00:57.010Z,54.05
2018-06-12T12:03:28.757Z,53.70
2018-06-12T12:06:03.080Z,52.08
2018-06-12T12:08:34.740Z,53.34
2018-06-12T12:11:04.775Z,54.57
2018-06-12T12:13:37.749Z,55.62
2018-06-12T12:16:09.321Z,54.10
2018-06-12T12:18:42.189Z,55.90
2018-06-12T12:21:16.602Z,54.41
2018-06-12T12:23:48.164Z,56.00
2018-06-12T12:26:22.839Z,55.13
2018-06-12T12:28:54.430Z,56.10
2018-06-12T12:31:27.527Z,54.25
2018-06-12T12:33:57.901Z,54.73
2018-06-12T12:36:29.380Z,55.93
2018-06-12T12:39:02.352Z,53.35
2018-06-12T12:41:34.683Z,53.33
2018-06-12T12:44:09.196Z,54.91
2018-06-12T12:46:40.633Z,54.72
2018-06-12T12:49:12.054Z,56.87
2018-06-12T12:51:46.528Z,58.58
2018-06-12T12:54:17.406Z,57.26
2018-06-12T12:56:50.335Z,55.08
2018-06-12T12:59:23.539Z,56.69
2018-06-12T13:01:59.283Z,56.06
2018-06-12T13:04:30.010Z,57.20
2018-06-12T13:07:00.017Z,57.03
2018-06-12T13:09:33.293Z,56.58
2018-06-12T13:12:05.152Z,57.26
2018-06-12T13:14:38.225Z,59.01
2018-06-12T13:17:11.338Z,59.15
2018-06-12T13:19:43.819Z,58.06
2018-06-12T13:22:17.196Z,58.40
2018-06-12T13:24:50.183Z,58.46
2018-06-12T13:27:20.454Z,57.85
2018-06-12T13:29:53.364Z,56.91
2018-06-12T13:32:24.982Z,58.57
2018-06-12T13:34:56.423Z,59.11
2018-06-12T13:37:31.015Z,58.85
2018-06-12T13:40:02.497Z,60.47
2018-06-12T13:42:34.170Z,59.54
2018-06-12T13:45:05.919Z,58.42
2018-06-12T13:47:39.928Z,57.83
2018-06-12T13:50:12.868Z,57.89
2018-06-12T13:52:48.553Z,59.68
2018-06-12T13:55:21.674Z,59.20
2018-06-12T13:57:56.193Z,60.97
2018-06-12T14:00:27.845Z,63.97
2018-06-12T14:03:00.207Z,64.13
2018-06-12T14:05:30.317Z,65.51
2018-06-12T14:08:01.746Z,65.45
2018-06-12T14:10:36.199Z,65.71
2018-06-12T14:13:09.297Z,64.68
2018-06-12T14:15:41.314Z,65.87
2018-06-12T14:18:17.228Z,65.03
2018-06-12T14:20:48.756Z,66.13
2018-06-12T14:23:22.053Z,64.91
2018-06-12T14:25:55.254Z,63.80
2018-06-12T14:28:28.298Z,62.85
2018-06-12T14:31:02.787Z,64.32
2018-06-12T14:33:35.708Z,63.84
2018-06-12T14:36:08.815Z,63.77
2018-06-12T14:38:43.526Z,64.33
2018-06-12T14:41:16.771Z,64.44
2018-06-12T14:43:51.373Z,63.87
2018-06-12T14:46:24.352Z,64.92
2018-06-12T14:48:57.529Z,64.12
2018-06-12T14:51:29.051Z,65.00
2018-06-12T14:54:02.502Z,64.79
2018-06-12T14:56:36.739Z,66.16
2018-06-12T14:59:08.392Z,65.73
2018-06-12T15:01:41.622Z,66.05
2018-06-12T15:04:14.121Z,65.67
2018-06-12T15:06:48.666Z,65.29
2018-06-12T15:09:22.924Z,64.70
2018-06-12T15:11:53.490Z,64.39
2018-06-12T15:14:26.885Z,64.54
2018-06-12T15:17:01.679Z,63.46
2018-06-12T15:19:33.671Z,63.42
2018-06-12T15:22:06.843Z,63.21
2018-06-12T15:24:41.292Z,62.36
2018-06-12T15:27:12.738Z,62.17
2018-06-12T15:29:45.886Z,63.06
2018-06-12T15:32:19.190Z,62.92
2018-06-12T15:34:54.831Z,62.91
2018-06-12T15:37:29.426Z,62.48
2018-06-12T15:40:02.562Z,64.64
2018-06-12T15:42:32.499Z,63.27
2018-06-12T15:45:04.268Z,64.17
2018-06-12T15:47:37.195Z,65.05
2018-06-12T15:50:12.100Z,65.89
2018-06-12T15:52:44.655Z,65.77
2018-06-12T15:55:15.198Z,65.11
2018-06-12T15:57:48.259Z,66.48
2018-06-12T16:00:20.429Z,65.94
2018-06-12T16:02:54.861Z,66.27
2018-06-12T16:05:29.721Z,68.46
2018-06-12T16:08:01.331Z,73.54
2018-06-12T16:10:36.169Z,75.54
2018-06-12T16:13:10.596Z,76.71
2018-06-12T16:15:42.070Z,77.82
2018-06-12T16:18:13.742Z,77.21
2018-06-12T16:20:48.652Z,78.44
2018-06-12T16:23:21.594Z,78.75
2018-06-12T16:25:53.108Z,78.78
2018-06-12T16:28:27.462Z,77.13
2018-06-12T16:31:02.252Z,76.85
2018-06-12T16:33:35.336Z,75.51
2018-06-12T16:36:07.693Z,74.93
2018-06-12T16:38:39.206Z,74.76
2018-06-12T16:41:10.773Z,74.33
2018-06-12T16:43:40.707Z,74.44
2018-06-12T16:46:12.341Z,73.72
2018-06-12T16:48:46.863Z,72.55
2018-06-12T16:51:18.302Z,73.09
2018-06-12T16:53:49.997Z,74.36
2018-06-12T16:56:21.479Z,73.26
2018-06-12T16:58:52.995Z,73.75
2018-06-12T17:01:24.630Z,73.28
2018-06-12T17:03:57.907Z,73.55
2018-06-12T17:06:32.609Z,73.35
2018-06-12T17:09:05.866Z,72.10
2018-06-12T17:11:40.331Z,72.59
2018-06-12T17:14:13.864Z,73.14
2018-06-12T17:16:48.360Z,72.36
2018-06-12T17:19:22.827Z,71.71
2018-06-12T17:21:56.124Z,71.74
2018-06-12T17:24:29.201Z,72.61
2018-06-12T17:27:02.154Z,73.24
2018-06-12T17:29:33.751Z,72.75
2018-06-12T17:32:05.486Z,73.12
2018-06-12T17:34:37.743Z,73.85
2018-06-12T17:37:11.321Z,73.58
2018-06-12T17:39:45.036Z,74.08
2018-06-12T17:42:14.973Z,74.04
2018-06-12T17:44:47.922Z,73.42
2018-06-12T17:47:19.405Z,72.67
2018-06-12T17:49:51.513Z,72.65
2018-06-12T17:52:24.869Z,72.79
2018-06-12T17:54:55.588Z,71.99
2018-06-12T17:57:27.267Z,73.11
2018-06-12T18:00:01.377Z,71.49
2018-06-12T18:02:34.488Z,71.87
2018-06-12T18:05:05.966Z,71.58
2018-06-12T18:07:38.016Z,70.81
2018-06-12T18:10:10.976Z,71.40
2018-06-12T18:12:43.225Z,71.42
2018-06-12T18:15:16.738Z,71.61
2018-06-12T18:17:51.205Z,72.25
2018-06-12T18:20:23.139Z,72.45
2018-06-12T18:22:54.998Z,69.87
2018-06-12T18:25:29.615Z,70.16
2018-06-12T18:28:01.058Z,70.26
2018-06-12T18:30:34.074Z,70.37
2018-06-12T18:33:07.351Z,69.33
2018-06-12T18:35:40.264Z,68.94
2018-06-12T18:38:14.784Z,69.10
2018-06-12T18:40:44.792Z,67.85
2018-06-12T18:43:14.879Z,67.49
2018-06-12T18:45:47.630Z,65.80
2018-06-12T18:48:19.125Z,67.10
2018-06-12T18:50:52.069Z,67.24
2018-06-12T18:53:24.991Z,65.91
2018-06-12T18:55:57.952Z,65.77
2018-06-12T18:58:29.545Z,65.22
2018-06-12T19:01:01.009Z,64.84
2018-06-12T19:03:36.019Z,65.08
2018-06-12T19:06:11.125Z,65.08
2018-06-12T19:08:44.030Z,65.14
2018-06-12T19:11:18.432Z,65.73
2018-06-12T19:13:51.416Z,65.46
2018-06-12T19:16:22.969Z,65.87
2018-06-12T19:18:53.813Z,65.78
2018-06-12T19:21:23.745Z,66.62
2018-06-12T19:23:56.772Z,65.85
2018-06-12T19:26:29.851Z,65.76
2018-06-12T19:29:01.264Z,66.95
2018-06-12T19:31:33.246Z,66.32
2018-06-12T19:34:04.693Z,66.90
2018-06-12T19:36:37.992Z,66.60
2018-06-12T19:39:12.609Z,66.64
2018-06-12T19:41:44.144Z,66.37
2018-06-12T19:44:14.501Z,65.67
2018-06-12T19:46:48.950Z,66.02
2018-06-12T19:49:22.098Z,66.32
2018-06-12T19:51:53.542Z,66.08
2018-06-12T19:54:25.412Z,66.35
2018-06-12T19:56:55.643Z,66.77
2018-06-12T19:59:25.644Z,66.18
2018-06-12T20:01:57.899Z,66.26
2018-06-12T20:04:32.475Z,66.64
2018-06-12T20:07:05.416Z,65.66
2018-06-12T20:09:39.885Z,66.66
2018-06-12T20:12:13.764Z,65.37
2018-06-12T20:14:46.807Z,65.95
2018-06-12T20:17:20.048Z,65.43
2018-06-12T20:19:54.487Z,65.10
2018-06-12T20:22:26.114Z,65.34
2018-06-12T20:24:59.138Z,64.88
2018-06-12T20:27:32.407Z,66.79
2018-06-12T20:30:03.830Z,67.18
2018-06-12T20:32:36.809Z,66.49
2018-06-12T20:35:08.538Z,66.96
2018-06-12T20:37:40.124Z,66.98
2018-06-12T20:40:14.635Z,67.04
2018-06-12T20:42:46.260Z,66.49
2018-06-12T20:45:19.166Z,66.67
2018-06-12T20:47:50.873Z,66.77
2018-06-12T20:50:24.031Z,66.18
2018-06-12T20:52:57.035Z,66.74
2018-06-12T20:55:28.633Z,66.40
2018-06-12T20:58:01.682Z,66.30
2018-06-12T21:00:36.190Z,67.57
2018-06-12T21:03:07.958Z,68.32
2018-06-12T21:05:39.473Z,67.90
2018-06-12T21:08:12.263Z,68.33
2018-06-12T21:10:45.385Z,68.15
2018-06-12T21:13:18.300Z,67.42
2018-06-12T21:15:51.355Z,68.38
2018-06-12T21:18:26.147Z,68.75
2018-06-12T21:20:57.541Z,69.06
2018-06-12T21:23:30.552Z,69.12
2018-06-12T21:26:02.466Z,68.43
2018-06-12T21:28:33.881Z,68.86
2018-06-12T21:31:06.134Z,68.66
2018-06-12T21:33:37.674Z,69.45
2018-06-12T21:36:10.711Z,68.95
2018-06-12T21:38:44.410Z,69.10
2018-06-12T21:41:17.535Z,68.48
2018-06-12T21:43:50.432Z,68.76
2018-06-12T21:46:21.948Z,68.51
2018-06-12T21:48:55.078Z,68.61
2018-06-12T21:51:28.069Z,68.74
2018-06-12T21:53:59.698Z,69.24
2018-06-12T21:56:33.661Z,68.52
2018-06-12T21:59:04.446Z,68.91
2018-06-12T22:01:38.944Z,69.04
2018-06-12T22:04:11.023Z,69.51
2018-06-12T22:06:42.519Z,69.58
2018-06-12T22:09:17.054Z,69.75
2018-06-12T22:11:49.110Z,70.18
2018-06-12T22:14:21.971Z,69.55
2018-06-12T22:16:54.016Z,70.96
2018-06-12T22:19:27.008Z,70.18
2018-06-12T22:21:57.315Z,71.50
2018-06-12T22:24:33.320Z,71.94
2018-06-12T22:27:03.321Z,71.96
2018-06-12T22:29:34.776Z,73.69
2018-06-12T22:32:06.334Z,73.88
2018-06-12T22:34:40.801Z,75.40
2018-06-12T22:37:13.159Z,75.94
2018-06-12T22:39:44.841Z,76.50
2018-06-12T22:42:17.837Z,76.45
2018-06-12T22:44:49.869Z,78.12
2018-06-12T22:47:19.927Z,80.18
2018-06-12T22:49:54.367Z,79.79
2018-06-12T22:52:25.897Z,79.41
2018-06-12T22:54:55.929Z,79.11
2018-06-12T22:57:27.411Z,78.55
2018-06-12T22:59:59.947Z,78.77
2018-06-12T23:02:32.997Z,78.60
2018-06-12T23:05:06.094Z,79.50
2018-06-12T23:07:39.185Z,79.01
2018-06-12T23:10:12.524Z,78.95
2018-06-12T23:12:42.457Z,78.91
2018-06-12T23:15:15.538Z,78.80
2018-06-12T23:17:49.988Z,78.44
2018-06-12T23:20:57.439Z,79.13
2018-06-12T23:23:32.402Z,77.92
2018-06-12T23:26:06.892Z,78.19
2018-06-12T23:28:41.628Z,77.86
2018-06-12T23:31:11.628Z,77.70
2018-06-12T23:33:45.001Z,78.26
2018-06-12T23:36:16.996Z,77.30
2018-06-12T23:38:50.199Z,76.94
2018-06-12T23:41:23.201Z,77.06
2018-06-12T23:43:55.104Z,76.61
2018-06-12T23:46:26.700Z,77.25
2018-06-12T23:48:58.322Z,78.80
2018-06-12T23:51:29.357Z,78.32
2018-06-12T23:54:03.197Z,78.36
2018-06-12T23:56:36.405Z,79.28
2018-06-12T23:59:09.974Z,80.57
